sensor_id;sensor_type;location;lat;lon;timestamp;pressure;altitude;pressure_sealevel;temperature;humidity
69766;BME280;57039;48.014;21.384;2024-03-08T00:00:51;100911.25;;;5.57;100.00
69766;BME280;57039;48.014;21.384;2024-03-08T00:01:54;100930.31;;;5.58;100.00
69766;BME280;57039;48.014;21.384;2024-03-08T00:02:57;100920.69;;;5.61;100.00
69766;BME280;57039;48.014;21.384;2024-03-08T00:04:00;100925.03;;;5.61;100.00
69766;BME280;57039;48.014;21.384;2024-03-08T00:05:05;100926.13;;;5.54;100.00
69766;BME280;57039;48.014;21.384;2024-03-08T00:06:08;100930.34;;;5.56;100.00
69766;BME280;57039;48.014;21.384;2024-03-08T00:07:11;100865.44;;;5.20;100.00
69766;BME280;57039;48.014;21.384;2024-03-08T00:08:16;100922.59;;;5.55;100.00
69766;BME280;57039;48.014;21.384;2024-03-08T00:09:19;100921.63;;;5.59;100.00
69766;BME280;57039;48.014;21.384;2024-03-08T00:10:22;100926.06;;;5.55;100.00
69766;BME280;57039;48.014;21.384;2024-03-08T00:11:29;100917.50;;;5.52;100.00
69766;BME280;57039;48.014;21.384;2024-03-08T00:12:34;100931.41;;;5.51;100.00
69766;BME280;57039;48.014;21.384;2024-03-08T00:13:37;100921.84;;;5.51;100.00
69766;BME280;57039;48.014;21.384;2024-03-08T00:14:40;100928.97;;;5.44;100.00
69766;BME280;57039;48.014;21.384;2024-03-08T00:15:43;100933.19;;;5.48;100.00
69766;BME280;57039;48.014;21.384;2024-03-08T00:16:46;100926.28;;;5.47;100.00
69766;BME280;57039;48.014;21.384;2024-03-08T00:17:49;100928.87;;;5.47;100.00
69766;BME280;57039;48.014;21.384;2024-03-08T00:18:52;100925.28;;;5.52;100.00
69766;BME280;57039;48.014;21.384;2024-03-08T00:19:56;100928.75;;;5.52;100.00
69766;BME280;57039;48.014;21.384;2024-03-08T00:21:00;100919.31;;;5.48;100.00
69766;BME280;57039;48.014;21.384;2024-03-08T00:22:02;100906.41;;;5.45;100.00
69766;BME280;57039;48.014;21.384;2024-03-08T00:23:05;100923.72;;;5.46;100.00
69766;BME280;57039;48.014;21.384;2024-03-08T00:24:08;100919.25;;;5.51;100.00
69766;BME280;57039;48.014;21.384;2024-03-08T00:25:11;100923.50;;;5.54;100.00
69766;BME280;57039;48.014;21.384;2024-03-08T00:26:15;100914.03;;;5.51;100.00
69766;BME280;57039;48.014;21.384;2024-03-08T00:27:18;100921.00;;;5.51;100.00
69766;BME280;57039;48.014;21.384;2024-03-08T00:28:24;100918.41;;;5.49;100.00
69766;BME280;57039;48.014;21.384;2024-03-08T00:29:27;100910.69;;;5.47;100.00
69766;BME280;57039;48.014;21.384;2024-03-08T00:30:30;100925.41;;;5.47;100.00
69766;BME280;57039;48.014;21.384;2024-03-08T00:31:33;100922.88;;;5.44;100.00
69766;BME280;57039;48.014;21.384;2024-03-08T00:32:36;100924.63;;;5.45;100.00
69766;BME280;57039;48.014;21.384;2024-03-08T00:33:40;100919.31;;;5.48;100.00
69766;BME280;57039;48.014;21.384;2024-03-08T00:34:43;100915.00;;;5.47;100.00
69766;BME280;57039;48.014;21.384;2024-03-08T00:35:46;100915.81;;;5.49;100.00
69766;BME280;57039;48.014;21.384;2024-03-08T00:36:50;100914.03;;;5.51;100.00
69766;BME280;57039;48.014;21.384;2024-03-08T00:37:55;100916.91;;;5.40;100.00
69766;BME280;57039;48.014;21.384;2024-03-08T00:38:59;100917.81;;;5.39;100.00
69766;BME280;57039;48.014;21.384;2024-03-08T00:40:03;100919.50;;;5.42;100.00
69766;BME280;57039;48.014;21.384;2024-03-08T00:41:07;100920.34;;;5.42;100.00
69766;BME280;57039;48.014;21.384;2024-03-08T00:42:10;100909.09;;;5.42;100.00
69766;BME280;57039;48.014;21.384;2024-03-08T00:43:13;100908.19;;;5.43;100.00
69766;BME280;57039;48.014;21.384;2024-03-08T00:44:16;100919.44;;;5.43;100.00
69766;BME280;57039;48.014;21.384;2024-03-08T00:45:18;100919.50;;;5.42;100.00
69766;BME280;57039;48.014;21.384;2024-03-08T00:46:21;100910.69;;;5.46;100.00
69766;BME280;57039;48.014;21.384;2024-03-08T00:47:24;100908.91;;;5.48;100.00
69766;BME280;57039;48.014;21.384;2024-03-08T00:48:27;100908.09;;;5.46;100.00
69766;BME280;57039;48.014;21.384;2024-03-08T00:49:30;100920.28;;;5.44;100.00
69766;BME280;57039;48.014;21.384;2024-03-08T00:50:33;100916.06;;;5.40;100.00
69766;BME280;57039;48.014;21.384;2024-03-08T00:51:36;100914.38;;;5.39;100.00
69766;BME280;57039;48.014;21.384;2024-03-08T00:52:39;100909.97;;;5.41;100.00
69766;BME280;57039;48.014;21.384;2024-03-08T00:53:42;100912.66;;;5.38;100.00
69766;BME280;57039;48.014;21.384;2024-03-08T00:54:46;100922.03;;;5.43;100.00
69766;BME280;57039;48.014;21.384;2024-03-08T00:55:49;100916.97;;;5.39;100.00
69766;BME280;57039;48.014;21.384;2024-03-08T00:56:52;100911.78;;;5.39;100.00
69766;BME280;57039;48.014;21.384;2024-03-08T00:57:54;100920.25;;;5.45;100.00
69766;BME280;57039;48.014;21.384;2024-03-08T00:58:57;100921.97;;;5.46;100.00
69766;BME280;57039;48.014;21.384;2024-03-08T01:00:06;100824.06;;;4.78;100.00
69766;BME280;57039;48.014;21.384;2024-03-08T01:01:13;100911.03;;;5.34;100.00
69766;BME280;57039;48.014;21.384;2024-03-08T01:02:18;100909.09;;;5.42;100.00
69766;BME280;57039;48.014;21.384;2024-03-08T01:03:22;100917.69;;;5.44;100.00
69766;BME280;57039;48.014;21.384;2024-03-08T01:04:24;100914.38;;;5.39;100.00
69766;BME280;57039;48.014;21.384;2024-03-08T01:05:28;100919.41;;;5.45;100.00
69766;BME280;57039;48.014;21.384;2024-03-08T01:06:31;100926.22;;;5.49;100.00
69766;BME280;57039;48.014;21.384;2024-03-08T01:07:34;100921.09;;;5.47;100.00
69766;BME280;57039;48.014;21.384;2024-03-08T01:08:38;100923.78;;;5.44;100.00
69766;BME280;57039;48.014;21.384;2024-03-08T01:09:41;100918.50;;;5.46;100.00
69766;BME280;57039;48.014;21.384;2024-03-08T01:10:44;100919.41;;;5.45;100.00
69766;BME280;57039;48.014;21.384;2024-03-08T01:11:47;100917.56;;;5.48;100.00
69766;BME280;57039;48.014;21.384;2024-03-08T01:12:50;100915.97;;;5.44;100.00
69766;BME280;57039;48.014;21.384;2024-03-08T01:13:53;100903.16;;;5.37;100.00
69766;BME280;57039;48.014;21.384;2024-03-08T01:14:56;100890.47;;;5.24;100.00
69766;BME280;57039;48.014;21.384;2024-03-08T01:16:01;100911.78;;;5.39;100.00
69766;BME280;57039;48.014;21.384;2024-03-08T01:17:04;100893.03;;;5.26;100.00
69766;BME280;57039;48.014;21.384;2024-03-08T01:18:07;100910.91;;;5.38;100.00
69766;BME280;57039;48.014;21.384;2024-03-08T01:19:10;100909.88;;;5.44;100.00
69766;BME280;57039;48.014;21.384;2024-03-08T01:20:13;100913.41;;;5.41;100.00
69766;BME280;57039;48.014;21.384;2024-03-08T01:21:16;100917.81;;;5.39;100.00
69766;BME280;57039;48.014;21.384;2024-03-08T01:22:19;100903.22;;;5.34;100.00
69766;BME280;57039;48.014;21.384;2024-03-08T01:23:22;100910.94;;;5.37;100.00
69766;BME280;57039;48.014;21.384;2024-03-08T01:24:25;100916.00;;;5.41;100.00
69766;BME280;57039;48.014;21.384;2024-03-08T01:25:28;100909.19;;;5.39;100.00
69766;BME280;57039;48.014;21.384;2024-03-08T01:26:31;100884.19;;;5.33;100.00
69766;BME280;57039;48.014;21.384;2024-03-08T01:27:34;100903.88;;;5.42;100.00
69766;BME280;57039;48.014;21.384;2024-03-08T01:28:37;100910.88;;;5.40;100.00
69766;BME280;57039;48.014;21.384;2024-03-08T01:29:40;100911.81;;;5.37;100.00
69766;BME280;57039;48.014;21.384;2024-03-08T01:30:43;100916.16;;;5.37;100.00
69766;BME280;57039;48.014;21.384;2024-03-08T01:31:48;100878.56;;;5.16;100.00
69766;BME280;57039;48.014;21.384;2024-03-08T01:32:50;100914.50;;;5.34;100.00
69766;BME280;57039;48.014;21.384;2024-03-08T01:33:53;100917.94;;;5.35;100.00
69766;BME280;57039;48.014;21.384;2024-03-08T01:34:56;100914.31;;;5.40;100.00
69766;BME280;57039;48.014;21.384;2024-03-08T01:35:59;100912.81;;;5.32;100.00
69766;BME280;57039;48.014;21.384;2024-03-08T01:37:02;100914.63;;;5.30;100.00
69766;BME280;57039;48.014;21.384;2024-03-08T01:38:05;100913.75;;;5.29;100.00
69766;BME280;57039;48.014;21.384;2024-03-08T01:39:08;100910.22;;;5.32;100.00
69766;BME280;57039;48.014;21.384;2024-03-08T01:40:12;100909.44;;;5.30;100.00
69766;BME280;57039;48.014;21.384;2024-03-08T01:41:15;100907.59;;;5.33;100.00
69766;BME280;57039;48.014;21.384;2024-03-08T01:42:20;100911.13;;;5.31;100.00
69766;BME280;57039;48.014;21.384;2024-03-08T01:43:29;100907.75;;;5.27;100.00
69766;BME280;57039;48.014;21.384;2024-03-08T01:44:32;100909.34;;;5.33;100.00
69766;BME280;57039;48.014;21.384;2024-03-08T01:45:37;100900.75;;;5.29;100.00
69766;BME280;57039;48.014;21.384;2024-03-08T01:46:40;100911.28;;;5.24;100.00
69766;BME280;57039;48.014;21.384;2024-03-08T01:47:43;100897.53;;;5.19;100.00
69766;BME280;57039;48.014;21.384;2024-03-08T01:48:46;100907.69;;;5.29;100.00
69766;BME280;57039;48.014;21.384;2024-03-08T01:49:50;100894.09;;;5.19;100.00
69766;BME280;57039;48.014;21.384;2024-03-08T01:50:53;100895.75;;;5.21;100.00
69766;BME280;57039;48.014;21.384;2024-03-08T01:51:57;100906.84;;;5.28;100.00
69766;BME280;57039;48.014;21.384;2024-03-08T01:53:01;100905.88;;;5.32;100.00
69766;BME280;57039;48.014;21.384;2024-03-08T01:54:05;100912.09;;;5.26;100.00
69766;BME280;57039;48.014;21.384;2024-03-08T01:55:08;100899.03;;;5.30;100.00
69766;BME280;57039;48.014;21.384;2024-03-08T01:56:11;100902.41;;;5.32;100.00
69766;BME280;57039;48.014;21.384;2024-03-08T01:57:15;100895.72;;;5.23;100.00
69766;BME280;57039;48.014;21.384;2024-03-08T01:58:20;100907.59;;;5.33;100.00
69766;BME280;57039;48.014;21.384;2024-03-08T01:59:25;100902.56;;;5.25;100.00
69766;BME280;57039;48.014;21.384;2024-03-08T02:00:29;100891.56;;;5.16;100.00
69766;BME280;57039;48.014;21.384;2024-03-08T02:01:33;100899.41;;;5.14;100.00
69766;BME280;57039;48.014;21.384;2024-03-08T02:02:37;100907.78;;;5.25;100.00
69766;BME280;57039;48.014;21.384;2024-03-08T02:03:40;100907.87;;;5.22;100.00
69766;BME280;57039;48.014;21.384;2024-03-08T02:04:44;100895.75;;;5.21;100.00
69766;BME280;57039;48.014;21.384;2024-03-08T02:05:47;100913.75;;;5.29;100.00
69766;BME280;57039;48.014;21.384;2024-03-08T02:06:51;100905.25;;;5.22;100.00
69766;BME280;57039;48.014;21.384;2024-03-08T02:07:54;100904.44;;;5.20;100.00
69766;BME280;57039;48.014;21.384;2024-03-08T02:08:57;100913.06;;;5.22;100.00
69766;BME280;57039;48.014;21.384;2024-03-08T02:10:00;100914.13;;;5.15;100.00
69766;BME280;57039;48.014;21.384;2024-03-08T02:11:04;100908.03;;;5.16;100.00
69766;BME280;57039;48.014;21.384;2024-03-08T02:12:07;100891.75;;;5.08;100.00
69766;BME280;57039;48.014;21.384;2024-03-08T02:13:11;100916.56;;;5.21;100.00
69766;BME280;57039;48.014;21.384;2024-03-08T02:14:14;100912.31;;;5.17;100.00
69766;BME280;57039;48.014;21.384;2024-03-08T02:15:17;100911.53;;;5.15;100.00
69766;BME280;57039;48.014;21.384;2024-03-08T02:16:21;100914.22;;;5.11;100.00
69766;BME280;57039;48.014;21.384;2024-03-08T02:17:24;100804.16;;;4.45;100.00
69766;BME280;57039;48.014;21.384;2024-03-08T02:18:28;100904.56;;;5.16;100.00
69766;BME280;57039;48.014;21.384;2024-03-08T02:19:32;100904.66;;;5.13;100.00
69766;BME280;57039;48.014;21.384;2024-03-08T02:20:35;100915.75;;;5.19;100.00
69766;BME280;57039;48.014;21.384;2024-03-08T02:21:38;100911.69;;;5.09;100.00
69766;BME280;57039;48.014;21.384;2024-03-08T02:22:42;100908.94;;;5.14;100.00
69766;BME280;57039;48.014;21.384;2024-03-08T02:23:44;100910.69;;;5.15;100.00
69766;BME280;57039;48.014;21.384;2024-03-08T02:24:48;100910.03;;;5.05;100.00
69766;BME280;57039;48.014;21.384;2024-03-08T02:25:51;100911.69;;;5.09;100.00
69766;BME280;57039;48.014;21.384;2024-03-08T02:26:54;100910.75;;;5.12;100.00
69766;BME280;57039;48.014;21.384;2024-03-08T02:27:57;100907.28;;;5.11;100.00
69766;BME280;57039;48.014;21.384;2024-03-08T02:29:01;100892.78;;;5.02;100.00
69766;BME280;57039;48.014;21.384;2024-03-08T02:30:05;100912.53;;;5.10;100.00
69766;BME280;57039;48.014;21.384;2024-03-08T02:31:08;100912.63;;;5.07;100.00
69766;BME280;57039;48.014;21.384;2024-03-08T02:32:10;100906.44;;;5.11;100.00
69766;BME280;57039;48.014;21.384;2024-03-08T02:33:17;100907.28;;;5.11;100.00
69766;BME280;57039;48.014;21.384;2024-03-08T02:34:21;100903.03;;;5.09;100.00
69766;BME280;57039;48.014;21.384;2024-03-08T02:35:23;100904.06;;;5.03;100.00
69766;BME280;57039;48.014;21.384;2024-03-08T02:36:26;100900.56;;;5.02;100.00
69766;BME280;57039;48.014;21.384;2024-03-08T02:37:29;100909.28;;;5.01;100.00
69766;BME280;57039;48.014;21.384;2024-03-08T02:38:32;100910.94;;;5.06;100.00
69766;BME280;57039;48.014;21.384;2024-03-08T02:39:35;100903.16;;;5.04;100.00
69766;BME280;57039;48.014;21.384;2024-03-08T02:40:38;100906.56;;;5.06;100.00
69766;BME280;57039;48.014;21.384;2024-03-08T02:41:41;100910.19;;;4.99;100.00
69766;BME280;57039;48.014;21.384;2024-03-08T02:42:45;100909.97;;;5.08;100.00
69766;BME280;57039;48.014;21.384;2024-03-08T02:43:48;100916.81;;;5.12;100.00
69766;BME280;57039;48.014;21.384;2024-03-08T02:44:52;100909.13;;;5.08;100.00
69766;BME280;57039;48.014;21.384;2024-03-08T02:45:55;100912.81;;;4.99;100.00
69766;BME280;57039;48.014;21.384;2024-03-08T02:46:58;100913.53;;;5.06;100.00
69766;BME280;57039;48.014;21.384;2024-03-08T02:48:01;100910.78;;;5.10;100.00
69766;BME280;57039;48.014;21.384;2024-03-08T02:49:04;100914.31;;;5.08;100.00
69766;BME280;57039;48.014;21.384;2024-03-08T02:50:07;100915.16;;;5.08;100.00
69766;BME280;57039;48.014;21.384;2024-03-08T02:51:12;100911.69;;;5.09;100.00
69766;BME280;57039;48.014;21.384;2024-03-08T02:52:16;100910.25;;;4.97;100.00
69766;BME280;57039;48.014;21.384;2024-03-08T02:53:19;100910.03;;;5.05;100.00
69766;BME280;57039;48.014;21.384;2024-03-08T02:54:22;100890.34;;;4.96;100.00
69766;BME280;57039;48.014;21.384;2024-03-08T02:55:25;100912.69;;;5.03;100.00
69766;BME280;57039;48.014;21.384;2024-03-08T02:56:28;100917.91;;;5.03;100.00
69766;BME280;57039;48.014;21.384;2024-03-08T02:57:31;100918.56;;;5.12;100.00
69766;BME280;57039;48.014;21.384;2024-03-08T02:58:34;100919.66;;;5.03;100.00
69766;BME280;57039;48.014;21.384;2024-03-08T02:59:37;100925.56;;;5.08;100.00
69766;BME280;57039;48.014;21.384;2024-03-08T03:00:42;100927.41;;;5.04;100.00
69766;BME280;57039;48.014;21.384;2024-03-08T03:01:47;100922.09;;;5.09;100.00
69766;BME280;57039;48.014;21.384;2024-03-08T03:02:50;100925.50;;;5.11;100.00
69766;BME280;57039;48.014;21.384;2024-03-08T03:03:56;100922.09;;;5.09;100.00
69766;BME280;57039;48.014;21.384;2024-03-08T03:04:59;100922.88;;;5.11;100.00
69766;BME280;57039;48.014;21.384;2024-03-08T03:06:07;100927.28;;;5.09;100.00
69766;BME280;57039;48.014;21.384;2024-03-08T03:07:10;100922.94;;;5.10;100.00
69766;BME280;57039;48.014;21.384;2024-03-08T03:08:13;100928.09;;;5.11;100.00
69766;BME280;57039;48.014;21.384;2024-03-08T03:09:18;100915.31;;;5.02;100.00
69766;BME280;57039;48.014;21.384;2024-03-08T03:10:26;100917.94;;;5.02;100.00
69766;BME280;57039;48.014;21.384;2024-03-08T03:11:29;100928.16;;;5.08;100.00
69766;BME280;57039;48.014;21.384;2024-03-08T03:12:32;100929.16;;;5.04;100.00
69766;BME280;57039;48.014;21.384;2024-03-08T03:13:36;100927.69;;;4.94;100.00
69766;BME280;57039;48.014;21.384;2024-03-08T03:14:39;100925.16;;;4.91;100.00
69766;BME280;57039;48.014;21.384;2024-03-08T03:15:42;100931.09;;;4.96;100.00
69766;BME280;57039;48.014;21.384;2024-03-08T03:16:45;100926.72;;;4.98;100.00
69766;BME280;57039;48.014;21.384;2024-03-08T03:17:49;100929.22;;;5.01;100.00
69766;BME280;57039;48.014;21.384;2024-03-08T03:18:55;100928.31;;;5.03;100.00
69766;BME280;57039;48.014;21.384;2024-03-08T03:19:59;100932.72;;;5.00;100.00
69766;BME280;57039;48.014;21.384;2024-03-08T03:21:06;100930.22;;;4.97;100.00
69766;BME280;57039;48.014;21.384;2024-03-08T03:22:10;100923.41;;;4.91;100.00
69766;BME280;57039;48.014;21.384;2024-03-08T03:23:13;100924.22;;;4.93;100.00
69766;BME280;57039;48.014;21.384;2024-03-08T03:24:18;100928.63;;;4.91;100.00
69766;BME280;57039;48.014;21.384;2024-03-08T03:25:21;100924.19;;;4.95;100.00
69766;BME280;57039;48.014;21.384;2024-03-08T03:26:38;100922.34;;;4.98;100.00
69766;BME280;57039;48.014;21.384;2024-03-08T03:27:41;100924.22;;;4.93;100.00
69766;BME280;57039;48.014;21.384;2024-03-08T03:28:44;100930.22;;;4.95;100.00
69766;BME280;57039;48.014;21.384;2024-03-08T03:29:47;100925.88;;;4.96;100.00
69766;BME280;57039;48.014;21.384;2024-03-08T03:30:52;100922.34;;;5.00;100.00
69766;BME280;57039;48.014;21.384;2024-03-08T03:31:55;100917.63;;;4.80;100.00
69766;BME280;57039;48.014;21.384;2024-03-08T03:33:00;100921.97;;;4.79;100.00
69766;BME280;57039;48.014;21.384;2024-03-08T03:34:03;100925.50;;;4.75;100.00
69766;BME280;57039;48.014;21.384;2024-03-08T03:35:06;100919.28;;;4.83;100.00
69766;BME280;57039;48.014;21.384;2024-03-08T03:36:09;100913.41;;;4.76;100.00
69766;BME280;57039;48.014;21.384;2024-03-08T03:37:13;100927.94;;;4.83;100.00
69766;BME280;57039;48.014;21.384;2024-03-08T03:38:16;100924.44;;;4.84;100.00
69766;BME280;57039;48.014;21.384;2024-03-08T03:39:19;100930.78;;;4.74;100.00
69766;BME280;57039;48.014;21.384;2024-03-08T03:40:22;100930.62;;;4.78;100.00
69766;BME280;57039;48.014;21.384;2024-03-08T03:41:27;100923.66;;;4.80;100.00
69766;BME280;57039;48.014;21.384;2024-03-08T03:42:31;100923.59;;;4.84;100.00
69766;BME280;57039;48.014;21.384;2024-03-08T03:43:34;100926.25;;;4.80;100.00
69766;BME280;57039;48.014;21.384;2024-03-08T03:44:36;100929.69;;;4.83;100.00
69766;BME280;57039;48.014;21.384;2024-03-08T03:45:39;100922.72;;;4.85;100.00
69766;BME280;57039;48.014;21.384;2024-03-08T03:46:44;100908.16;;;4.77;100.00
69766;BME280;57039;48.014;21.384;2024-03-08T03:47:47;100922.66;;;4.88;100.00
69766;BME280;57039;48.014;21.384;2024-03-08T03:48:50;100922.72;;;4.85;100.00
69766;BME280;57039;48.014;21.384;2024-03-08T03:49:53;100920.31;;;4.75;100.00
69766;BME280;57039;48.014;21.384;2024-03-08T03:50:57;100935.06;;;4.75;100.00
69766;BME280;57039;48.014;21.384;2024-03-08T03:52:00;100922.91;;;4.75;100.00
69766;BME280;57039;48.014;21.384;2024-03-08T03:53:03;100893.91;;;4.58;100.00
69766;BME280;57039;48.014;21.384;2024-03-08T03:54:07;100929.06;;;4.73;100.00
69766;BME280;57039;48.014;21.384;2024-03-08T03:55:10;100933.38;;;4.72;100.00
69766;BME280;57039;48.014;21.384;2024-03-08T03:56:14;100915.53;;;4.58;100.00
69766;BME280;57039;48.014;21.384;2024-03-08T03:57:17;100924.94;;;4.64;100.00
69766;BME280;57039;48.014;21.384;2024-03-08T03:58:21;100901.03;;;4.50;100.00
69766;BME280;57039;48.014;21.384;2024-03-08T03:59:26;100931.63;;;4.74;100.00
69766;BME280;57039;48.014;21.384;2024-03-08T04:00:32;100929.91;;;4.73;100.00
69766;BME280;57039;48.014;21.384;2024-03-08T04:01:36;100933.59;;;4.65;100.00
69766;BME280;57039;48.014;21.384;2024-03-08T04:02:41;100934.50;;;4.64;100.00
69766;BME280;57039;48.014;21.384;2024-03-08T04:03:45;100921.53;;;4.62;100.00
69766;BME280;57039;48.014;21.384;2024-03-08T04:04:48;100894.22;;;4.44;100.00
69766;BME280;57039;48.014;21.384;2024-03-08T04:05:51;100936.06;;;4.69;100.00
69766;BME280;57039;48.014;21.384;2024-03-08T04:06:54;100932.75;;;4.64;100.00
69766;BME280;57039;48.014;21.384;2024-03-08T04:07:57;100930.00;;;4.69;100.00
69766;BME280;57039;48.014;21.384;2024-03-08T04:09:00;100932.59;;;4.70;100.00
69766;BME280;57039;48.014;21.384;2024-03-08T04:10:04;100937.03;;;4.65;100.00
69766;BME280;57039;48.014;21.384;2024-03-08T04:11:08;100932.69;;;4.66;100.00
69766;BME280;57039;48.014;21.384;2024-03-08T04:12:12;100859.66;;;4.03;100.00
69766;BME280;57039;48.014;21.384;2024-03-08T04:13:15;100929.59;;;4.50;100.00
69766;BME280;57039;48.014;21.384;2024-03-08T04:14:18;100931.34;;;4.49;100.00
69766;BME280;57039;48.014;21.384;2024-03-08T04:15:21;100933.69;;;4.60;100.00
69766;BME280;57039;48.014;21.384;2024-03-08T04:16:24;100931.09;;;4.60;100.00
69766;BME280;57039;48.014;21.384;2024-03-08T04:17:28;100934.53;;;4.61;100.00
69766;BME280;57039;48.014;21.384;2024-03-08T04:18:32;100931.22;;;4.54;100.00
69766;BME280;57039;48.014;21.384;2024-03-08T04:19:35;100932.84;;;4.60;100.00
69766;BME280;57039;48.014;21.384;2024-03-08T04:20:38;100926.19;;;4.48;100.00
69766;BME280;57039;48.014;21.384;2024-03-08T04:21:43;100927.75;;;4.55;100.00
69766;BME280;57039;48.014;21.384;2024-03-08T04:22:46;100938.31;;;4.49;100.00
69766;BME280;57039;48.014;21.384;2024-03-08T04:23:52;100939.31;;;4.42;100.00
69766;BME280;57039;48.014;21.384;2024-03-08T04:24:54;100934.03;;;4.45;100.00
69766;BME280;57039;48.014;21.384;2024-03-08T04:25:57;100941.75;;;4.48;100.00
69766;BME280;57039;48.014;21.384;2024-03-08T04:27:00;100937.47;;;4.47;100.00
69766;BME280;57039;48.014;21.384;2024-03-08T04:28:03;100940.06;;;4.47;100.00
69766;BME280;57039;48.014;21.384;2024-03-08T04:29:06;100943.34;;;4.55;100.00
69766;BME280;57039;48.014;21.384;2024-03-08T04:30:10;100940.84;;;4.50;100.00
69766;BME280;57039;48.014;21.384;2024-03-08T04:31:13;100942.53;;;4.51;100.00
69766;BME280;57039;48.014;21.384;2024-03-08T04:32:16;100939.16;;;4.49;100.00
69766;BME280;57039;48.014;21.384;2024-03-08T04:33:19;100906.66;;;4.31;100.00
69766;BME280;57039;48.014;21.384;2024-03-08T04:34:22;100938.16;;;4.55;100.00
69766;BME280;57039;48.014;21.384;2024-03-08T04:35:25;100944.97;;;4.59;100.00
69766;BME280;57039;48.014;21.384;2024-03-08T04:36:28;100945.87;;;4.58;100.00
69766;BME280;57039;48.014;21.384;2024-03-08T04:37:31;100945.06;;;4.54;100.00
69766;BME280;57039;48.014;21.384;2024-03-08T04:38:35;100943.22;;;4.61;100.00
69766;BME280;57039;48.014;21.384;2024-03-08T04:39:38;100937.19;;;4.59;100.00
69766;BME280;57039;48.014;21.384;2024-03-08T04:40:41;100946.47;;;4.69;100.00
69766;BME280;57039;48.014;21.384;2024-03-08T04:41:44;100943.22;;;4.61;100.00
69766;BME280;57039;48.014;21.384;2024-03-08T04:42:48;100948.34;;;4.64;100.00
69766;BME280;57039;48.014;21.384;2024-03-08T04:43:54;100955.37;;;4.57;100.00
69766;BME280;57039;48.014;21.384;2024-03-08T04:45:00;100944.97;;;4.59;100.00
69766;BME280;57039;48.014;21.384;2024-03-08T04:46:03;100950.13;;;4.61;100.00
69766;BME280;57039;48.014;21.384;2024-03-08T04:47:06;100931.50;;;4.42;100.00
69766;BME280;57039;48.014;21.384;2024-03-08T04:48:09;100947.75;;;4.51;100.00
69766;BME280;57039;48.014;21.384;2024-03-08T04:49:12;100946.03;;;4.52;100.00
69766;BME280;57039;48.014;21.384;2024-03-08T04:50:15;100951.22;;;4.52;100.00
69766;BME280;57039;48.014;21.384;2024-03-08T04:51:18;100950.34;;;4.51;100.00
69766;BME280;57039;48.014;21.384;2024-03-08T04:52:22;100949.41;;;4.55;100.00
69766;BME280;57039;48.014;21.384;2024-03-08T04:53:25;100951.87;;;4.60;100.00
69766;BME280;57039;48.014;21.384;2024-03-08T04:54:28;100959.09;;;4.49;100.00
69766;BME280;57039;48.014;21.384;2024-03-08T04:55:31;100955.66;;;4.47;100.00
69766;BME280;57039;48.014;21.384;2024-03-08T04:56:34;100958.19;;;4.50;100.00
69766;BME280;57039;48.014;21.384;2024-03-08T04:57:37;100960.72;;;4.53;100.00
69766;BME280;57039;48.014;21.384;2024-03-08T04:58:39;100963.25;;;4.56;100.00
69766;BME280;57039;48.014;21.384;2024-03-08T04:59:43;100963.25;;;4.56;100.00
69766;BME280;57039;48.014;21.384;2024-03-08T05:00:46;100966.59;;;4.61;100.00
69766;BME280;57039;48.014;21.384;2024-03-08T05:01:49;100967.38;;;4.65;100.00
69766;BME280;57039;48.014;21.384;2024-03-08T05:02:51;100964.78;;;4.65;100.00
69766;BME280;57039;48.014;21.384;2024-03-08T05:03:56;100968.31;;;4.61;100.00
69766;BME280;57039;48.014;21.384;2024-03-08T05:05:06;100966.72;;;4.55;100.00
69766;BME280;57039;48.014;21.384;2024-03-08T05:06:09;100964.06;;;4.58;100.00
69766;BME280;57039;48.014;21.384;2024-03-08T05:07:12;100964.06;;;4.58;100.00
69766;BME280;57039;48.014;21.384;2024-03-08T05:08:14;100971.66;;;4.66;100.00
69766;BME280;57039;48.014;21.384;2024-03-08T05:09:17;100965.66;;;4.64;100.00
69766;BME280;57039;48.014;21.384;2024-03-08T05:10:22;100969.19;;;4.61;100.00
69766;BME280;57039;48.014;21.384;2024-03-08T05:11:25;100970.00;;;4.63;100.00
69766;BME280;57039;48.014;21.384;2024-03-08T05:12:28;100963.88;;;4.66;100.00
69766;BME280;57039;48.014;21.384;2024-03-08T05:13:30;100965.63;;;4.65;100.00
69766;BME280;57039;48.014;21.384;2024-03-08T05:14:33;100969.13;;;4.63;100.00
69766;BME280;57039;48.014;21.384;2024-03-08T05:15:37;100963.16;;;4.59;100.00
69766;BME280;57039;48.014;21.384;2024-03-08T05:16:44;100968.38;;;4.59;100.00
69766;BME280;57039;48.014;21.384;2024-03-08T05:17:53;100964.78;;;4.63;100.00
69766;BME280;57039;48.014;21.384;2024-03-08T05:18:58;100975.03;;;4.69;100.00
69766;BME280;57039;48.014;21.384;2024-03-08T05:20:03;100972.44;;;4.69;100.00
69766;BME280;57039;48.014;21.384;2024-03-08T05:21:07;100968.31;;;4.61;100.00
69766;BME280;57039;48.014;21.384;2024-03-08T05:22:12;100962.41;;;4.54;100.00
69766;BME280;57039;48.014;21.384;2024-03-08T05:23:16;100978.78;;;4.57;100.00
69766;BME280;57039;48.014;21.384;2024-03-08T05:24:19;100971.94;;;4.55;100.00
69766;BME280;57039;48.014;21.384;2024-03-08T05:25:22;100974.38;;;4.61;100.00
69766;BME280;57039;48.014;21.384;2024-03-08T05:26:25;100973.47;;;4.64;100.00
69766;BME280;57039;48.014;21.384;2024-03-08T05:27:28;100975.03;;;4.69;100.00
69766;BME280;57039;48.014;21.384;2024-03-08T05:28:31;100978.47;;;4.71;100.00